createdAt,value
2022-08-21T00:00:23.394Z,65.87
2022-08-21T00:01:23.363Z,65.56
2022-08-21T00:02:23.415Z,65.87
2022-08-21T00:03:23.331Z,65.97
2022-08-21T00:04:23.371Z,66.20
2022-08-21T00:05:24.300Z,66.20
2022-08-21T00:06:23.628Z,66.20
2022-08-21T00:07:23.277Z,67.71
2022-08-21T00:08:23.255Z,67.41
2022-08-21T00:09:23.252Z,67.41
2022-08-21T00:10:23.320Z,67.11
2022-08-21T00:11:23.197Z,66.40
2022-08-21T00:12:23.240Z,66.40
2022-08-21T00:13:23.187Z,66.40
2022-08-21T00:14:23.186Z,66.40
2022-08-21T00:15:23.245Z,66.60
2022-08-21T00:16:23.149Z,66.71
2022-08-21T00:17:23.106Z,67.03
2022-08-21T00:18:23.142Z,66.94
2022-08-21T00:19:23.070Z,67.14
2022-08-21T00:20:23.068Z,68.15
2022-08-21T00:21:23.119Z,67.97
2022-08-21T00:22:23.058Z,67.97
2022-08-21T00:23:23.016Z,67.88
2022-08-21T00:24:23.023Z,68.28
2022-08-21T00:25:24.282Z,68.51
2022-08-21T00:26:22.970Z,68.71
2022-08-21T00:27:22.965Z,68.71
2022-08-21T00:28:23.001Z,69.12
2022-08-21T00:29:22.985Z,68.81
2022-08-21T00:30:23.586Z,68.81
2022-08-21T00:31:22.962Z,68.61
2022-08-21T00:32:22.914Z,68.71
2022-08-21T00:33:22.880Z,68.71
2022-08-21T00:34:22.965Z,68.91
2022-08-21T00:35:22.993Z,68.81
2022-08-21T00:36:22.927Z,68.51
2022-08-21T00:37:22.878Z,68.81
2022-08-21T00:38:22.832Z,68.91
2022-08-21T00:39:22.890Z,69.62
2022-08-21T00:40:22.832Z,70.22
2022-08-21T00:41:37.911Z,70.32
2022-08-21T00:42:23.833Z,70.32
2022-08-21T00:43:22.760Z,70.56
2022-08-21T00:44:22.754Z,71.17
2022-08-21T00:45:22.804Z,71.37
2022-08-21T00:46:24.833Z,71.67
2022-08-21T00:47:23.705Z,71.47
2022-08-21T00:48:22.670Z,71.67
2022-08-21T00:49:22.709Z,71.47
2022-08-21T00:50:22.642Z,71.57
2022-08-21T00:51:22.682Z,71.87
2022-08-21T00:52:22.616Z,71.77
2022-08-21T00:53:22.665Z,71.77
2022-08-21T00:54:22.698Z,71.67
2022-08-21T00:55:23.461Z,71.57
2022-08-21T00:56:22.631Z,71.57
2022-08-21T00:57:23.655Z,71.47
2022-08-21T00:58:22.543Z,72.38
2022-08-21T00:59:22.568Z,72.88
2022-08-21T01:00:22.511Z,73.08
2022-08-21T01:01:22.639Z,73.48
2022-08-21T01:02:22.503Z,73.58
2022-08-21T01:03:23.049Z,73.68
2022-08-21T01:04:22.536Z,73.48
2022-08-21T01:05:22.531Z,73.38
2022-08-21T01:06:22.495Z,73.79
2022-08-21T01:07:22.598Z,73.72
2022-08-21T01:08:23.446Z,73.82
2022-08-21T01:09:22.481Z,74.02
2022-08-21T01:10:24.477Z,74.22
2022-08-21T01:11:22.411Z,74.73
2022-08-21T01:12:22.351Z,74.63
2022-08-21T01:13:22.368Z,74.63
2022-08-21T01:14:22.311Z,74.52
2022-08-21T01:15:22.334Z,74.52
2022-08-21T01:16:22.456Z,74.32
2022-08-21T01:17:22.352Z,74.02
2022-08-21T01:18:22.254Z,73.22
2022-08-21T01:19:22.344Z,72.81
2022-08-21T01:20:22.230Z,72.71
2022-08-21T01:21:23.228Z,72.71
2022-08-21T01:22:23.315Z,72.61
2022-08-21T01:23:22.213Z,72.41
2022-08-21T01:24:22.192Z,72.31
2022-08-21T01:25:22.409Z,72.41
2022-08-21T01:26:22.199Z,72.51
2022-08-21T01:27:22.164Z,72.75
2022-08-21T01:28:22.158Z,73.05
2022-08-21T01:29:22.123Z,73.25
2022-08-21T01:30:22.100Z,73.25
2022-08-21T01:31:24.063Z,73.65
2022-08-21T01:32:22.103Z,73.75
2022-08-21T01:33:22.126Z,73.55
2022-08-21T01:34:22.093Z,73.45
2022-08-21T01:35:22.047Z,72.95
2022-08-21T01:36:22.101Z,73.15
2022-08-21T01:37:22.004Z,73.45
2022-08-21T01:38:22.003Z,73.25
2022-08-21T01:39:21.994Z,73.25
2022-08-21T01:40:22.212Z,73.05
2022-08-21T01:41:22.149Z,73.05
2022-08-21T01:42:22.019Z,73.05
2022-08-21T01:43:23.869Z,72.95
2022-08-21T01:44:22.944Z,73.15
2022-08-21T01:45:21.962Z,73.15
2022-08-21T01:46:22.011Z,73.28
2022-08-21T01:47:21.932Z,73.38
2022-08-21T01:48:21.971Z,73.28
2022-08-21T01:49:21.873Z,73.38
2022-08-21T01:50:21.848Z,73.58
2022-08-21T01:51:21.991Z,73.79
2022-08-21T01:52:21.825Z,73.89
2022-08-21T01:53:21.813Z,73.89
2022-08-21T01:54:22.863Z,73.99
2022-08-21T01:55:21.775Z,74.09
2022-08-21T01:56:21.803Z,74.19
2022-08-21T01:57:21.969Z,74.29
2022-08-21T01:58:21.796Z,74.49
2022-08-21T01:59:21.746Z,74.49
2022-08-21T02:00:21.746Z,74.60
2022-08-21T02:01:48.124Z,74.69
2022-08-21T02:02:21.679Z,74.80
2022-08-21T02:03:35.071Z,74.90
2022-08-21T02:04:22.770Z,75.10
2022-08-21T02:05:21.678Z,75.40
2022-08-21T02:06:21.633Z,75.54
2022-08-21T02:07:21.747Z,75.74
2022-08-21T02:08:21.608Z,76.04
2022-08-21T02:09:21.578Z,76.15
2022-08-21T02:10:21.673Z,76.25
2022-08-21T02:11:21.565Z,76.35
2022-08-21T02:12:21.572Z,76.45
2022-08-21T02:13:21.670Z,76.55
2022-08-21T02:14:31.968Z,76.55
2022-08-21T02:15:22.496Z,76.65
2022-08-21T02:16:21.605Z,76.65
2022-08-21T02:17:21.485Z,76.89
2022-08-21T02:18:21.505Z,77.09
2022-08-21T02:19:21.458Z,77.19
2022-08-21T02:20:21.512Z,77.39
2022-08-21T02:21:21.405Z,77.50
2022-08-21T02:22:21.410Z,77.60
2022-08-21T02:23:21.544Z,77.60
2022-08-21T02:24:22.385Z,77.60
2022-08-21T02:25:21.364Z,77.70
2022-08-21T02:26:21.393Z,77.80
2022-08-21T02:27:25.919Z,77.90
2022-08-21T02:28:22.365Z,78.10
2022-08-21T02:29:21.353Z,78.20
2022-08-21T02:30:21.324Z,78.20
2022-08-21T02:31:21.297Z,78.41
2022-08-21T02:32:21.340Z,78.41
2022-08-21T02:33:21.924Z,78.61
2022-08-21T02:34:21.265Z,78.81
2022-08-21T02:35:21.330Z,79.01
2022-08-21T02:36:21.198Z,79.11
2022-08-21T02:37:21.186Z,79.25
2022-08-21T02:38:21.211Z,79.35
2022-08-21T02:39:27.166Z,79.35
2022-08-21T02:40:22.256Z,79.46
2022-08-21T02:41:21.135Z,79.66
2022-08-21T02:42:21.181Z,79.75
2022-08-21T02:43:21.122Z,79.66
2022-08-21T02:44:21.097Z,79.46
2022-08-21T02:45:22.131Z,79.35
2022-08-21T02:46:21.135Z,79.25
2022-08-21T02:47:21.064Z,79.05
2022-08-21T02:48:21.052Z,78.95
2022-08-21T02:49:21.270Z,79.15
2022-08-21T02:50:21.177Z,79.29
2022-08-21T02:51:21.029Z,79.39
2022-08-21T02:52:21.039Z,79.39
2022-08-21T02:53:20.994Z,79.39
2022-08-21T02:54:20.985Z,79.59
2022-08-21T02:55:21.039Z,79.69
2022-08-21T02:56:20.996Z,79.79
2022-08-21T02:57:20.972Z,79.79
2022-08-21T02:58:20.968Z,79.90
2022-08-21T02:59:20.906Z,79.90
2022-08-21T03:00:20.899Z,79.90
2022-08-21T03:01:21.072Z,80.00
2022-08-21T03:02:21.107Z,80.10
2022-08-21T03:03:20.856Z,80.10
2022-08-21T03:04:20.870Z,80.10
2022-08-21T03:05:20.806Z,80.10
2022-08-21T03:06:20.807Z,80.20
2022-08-21T03:07:20.887Z,80.30
2022-08-21T03:08:20.846Z,80.40
2022-08-21T03:09:20.796Z,80.40
2022-08-21T03:10:20.783Z,80.30
2022-08-21T03:11:20.736Z,80.80
2022-08-21T03:12:20.808Z,80.40
2022-08-21T03:13:20.980Z,79.79
2022-08-21T03:14:20.777Z,79.69
2022-08-21T03:15:20.673Z,79.39
2022-08-21T03:16:20.783Z,79.49
2022-08-21T03:17:20.667Z,80.00
2022-08-21T03:18:21.769Z,80.20
2022-08-21T03:19:20.694Z,80.30
2022-08-21T03:20:20.628Z,80.50
2022-08-21T03:21:20.681Z,80.71
2022-08-21T03:22:20.756Z,80.80
2022-08-21T03:23:20.600Z,80.91
2022-08-21T03:24:21.338Z,81.05
2022-08-21T03:25:20.748Z,81.25
2022-08-21T03:26:21.618Z,81.55
2022-08-21T03:27:20.685Z,81.55
2022-08-21T03:28:20.497Z,81.35
2022-08-21T03:29:20.477Z,81.25
2022-08-21T03:30:20.511Z,81.25
2022-08-21T03:31:20.483Z,81.25
2022-08-21T03:32:20.583Z,81.15
2022-08-21T03:33:21.411Z,81.15
2022-08-21T03:34:20.532Z,81.35
2022-08-21T03:35:20.408Z,81.45
2022-08-21T03:36:20.515Z,81.55
2022-08-21T03:37:20.972Z,81.65
2022-08-21T03:38:23.374Z,81.65
2022-08-21T03:39:21.393Z,81.85
2022-08-21T03:40:20.466Z,81.85
2022-08-21T03:41:20.326Z,81.96
2022-08-21T03:42:20.334Z,81.96
2022-08-21T03:43:20.368Z,81.96
2022-08-21T03:44:20.284Z,81.85
2022-08-21T03:45:20.273Z,81.85
2022-08-21T03:46:20.286Z,81.85
2022-08-21T03:47:20.225Z,81.76
2022-08-21T03:48:20.214Z,81.85
2022-08-21T03:49:20.293Z,81.85
2022-08-21T03:50:20.196Z,81.96
2022-08-21T03:51:20.256Z,82.06
2022-08-21T03:52:20.250Z,82.06
2022-08-21T03:53:20.145Z,82.26
2022-08-21T03:54:20.145Z,82.26
2022-08-21T03:55:20.172Z,82.26
2022-08-21T03:56:20.136Z,82.26
2022-08-21T03:57:20.116Z,82.40
2022-08-21T03:58:20.136Z,82.60
2022-08-21T03:59:20.077Z,82.60
2022-08-21T04:00:20.060Z,82.50
2022-08-21T04:01:20.085Z,82.70
2022-08-21T04:02:20.053Z,82.81
2022-08-21T04:03:20.027Z,82.70
2022-08-21T04:04:20.074Z,82.67
2022-08-21T04:05:19.983Z,82.60
2022-08-21T04:06:19.994Z,82.60
2022-08-21T04:07:20.004Z,82.70
2022-08-21T04:08:19.995Z,82.90
2022-08-21T04:09:19.920Z,83.11
2022-08-21T04:10:19.977Z,83.21
2022-08-21T04:11:19.954Z,83.41
2022-08-21T04:12:19.887Z,83.72
2022-08-21T04:13:19.921Z,84.02
2022-08-21T04:14:19.856Z,84.02
2022-08-21T04:15:19.827Z,83.82
2022-08-21T04:16:19.867Z,83.41
2022-08-21T04:17:19.815Z,83.21
2022-08-21T04:18:19.833Z,82.70
2022-08-21T04:19:19.847Z,82.50
2022-08-21T04:20:19.796Z,82.30
2022-08-21T04:21:19.756Z,82.20
2022-08-21T04:22:19.869Z,82.10
2022-08-21T04:23:23.777Z,81.99
2022-08-21T04:24:19.766Z,81.99
2022-08-21T04:25:19.776Z,82.10
2022-08-21T04:26:19.736Z,82.10
2022-08-21T04:27:19.673Z,82.10
2022-08-21T04:28:19.676Z,82.10
2022-08-21T04:29:19.664Z,82.20
2022-08-21T04:30:19.761Z,82.30
2022-08-21T04:31:19.649Z,82.40
2022-08-21T04:32:19.677Z,82.40
2022-08-21T04:33:19.629Z,82.30
2022-08-21T04:34:19.932Z,82.40
2022-08-21T04:35:19.599Z,82.50
2022-08-21T04:36:20.902Z,82.60
2022-08-21T04:37:19.567Z,82.60
2022-08-21T04:38:19.539Z,82.50
2022-08-21T04:39:19.546Z,82.40
2022-08-21T04:40:19.628Z,82.54
2022-08-21T04:41:19.476Z,82.50
2022-08-21T04:42:20.593Z,82.40
2022-08-21T04:43:19.458Z,82.40
2022-08-21T04:44:19.445Z,82.20
2022-08-21T04:45:19.456Z,81.99
2022-08-21T04:46:19.427Z,81.90
2022-08-21T04:47:19.397Z,81.69
2022-08-21T04:48:19.437Z,81.59
2022-08-21T04:49:19.396Z,81.39
2022-08-21T04:50:19.378Z,81.39
2022-08-21T04:51:19.390Z,81.15
2022-08-21T04:52:19.337Z,80.50
2022-08-21T04:53:19.326Z,79.46
2022-08-21T04:54:19.411Z,78.30
2022-08-21T04:55:19.309Z,77.26
2022-08-21T04:56:19.287Z,76.21
2022-08-21T04:57:19.415Z,75.37
2022-08-21T04:58:19.236Z,74.52
2022-08-21T04:59:19.267Z,73.58
2022-08-21T05:00:19.354Z,72.98
2022-08-21T05:01:19.249Z,72.24
2022-08-21T05:02:19.237Z,71.50
2022-08-21T05:03:19.233Z,70.96
2022-08-21T05:04:19.209Z,70.03
2022-08-21T05:05:19.206Z,69.42
2022-08-21T05:06:19.184Z,69.18
2022-08-21T05:07:19.151Z,68.32
2022-08-21T05:08:20.118Z,67.28
2022-08-21T05:09:43.781Z,66.24
2022-08-21T05:10:20.157Z,65.61
2022-08-21T05:11:19.119Z,65.21
2022-08-21T05:12:19.066Z,64.28
2022-08-21T05:13:19.046Z,63.87
2022-08-21T05:14:19.139Z,63.54
2022-08-21T05:15:19.257Z,63.54
2022-08-21T05:16:36.935Z,63.45
2022-08-21T05:17:20.008Z,63.45
2022-08-21T05:18:19.118Z,63.45
2022-08-21T05:19:18.989Z,63.54
2022-08-21T05:20:18.950Z,63.84
2022-08-21T05:21:18.986Z,63.84
2022-08-21T05:22:18.919Z,63.31
2022-08-21T05:23:18.947Z,63.11
2022-08-21T05:24:18.944Z,62.68
2022-08-21T05:25:18.890Z,62.28
2022-08-21T05:26:18.909Z,62.18
2022-08-21T05:27:18.926Z,62.15
2022-08-21T05:28:18.849Z,61.55
2022-08-21T05:29:19.030Z,60.72
2022-08-21T05:30:18.841Z,60.29
2022-08-21T05:31:18.843Z,59.66
2022-08-21T05:32:18.790Z,59.27
2022-08-21T05:33:18.794Z,58.73
2022-08-21T05:34:18.786Z,58.11
2022-08-21T05:35:18.760Z,57.91
2022-08-21T05:36:18.772Z,57.58
2022-08-21T05:37:18.762Z,57.18
2022-08-21T05:38:18.721Z,56.85
2022-08-21T05:39:18.702Z,56.56
2022-08-21T05:40:22.227Z,56.46
2022-08-21T05:41:18.733Z,56.36
2022-08-21T05:42:18.735Z,56.23
2022-08-21T05:43:18.673Z,55.83
2022-08-21T05:44:18.656Z,55.63
2022-08-21T05:45:18.635Z,55.73
2022-08-21T05:46:19.688Z,54.88
2022-08-21T05:47:18.647Z,54.81
2022-08-21T05:48:18.658Z,54.79
2022-08-21T05:49:18.574Z,54.79
2022-08-21T05:50:18.622Z,54.38
2022-08-21T05:51:18.586Z,54.36
2022-08-21T05:52:18.534Z,54.06
2022-08-21T05:53:18.582Z,53.64
2022-08-21T05:54:18.535Z,53.21
2022-08-21T05:55:18.535Z,52.29
2022-08-21T05:56:18.554Z,51.87
2022-08-21T05:57:18.488Z,51.35
2022-08-21T05:58:18.470Z,51.15
2022-08-21T05:59:18.462Z,51.15
2022-08-21T06:00:18.455Z,51.05
2022-08-21T06:01:18.454Z,51.37
2022-08-21T06:02:18.486Z,52.29
2022-08-21T06:03:18.429Z,52.94
2022-08-21T06:04:18.376Z,53.76
2022-08-21T06:05:18.415Z,54.06
2022-08-21T06:06:19.376Z,54.03
2022-08-21T06:07:18.348Z,53.71
2022-08-21T06:08:18.389Z,53.02
2022-08-21T06:09:18.327Z,53.21
2022-08-21T06:10:18.308Z,53.64
2022-08-21T06:11:20.734Z,53.61
2022-08-21T06:12:18.278Z,52.59
2022-08-21T06:13:18.268Z,52.17
2022-08-21T06:14:18.360Z,52.17
2022-08-21T06:15:18.277Z,52.07
2022-08-21T06:16:18.290Z,51.84
2022-08-21T06:17:18.274Z,51.97
2022-08-21T06:18:18.201Z,52.89
2022-08-21T06:19:18.208Z,52.26
2022-08-21T06:20:18.207Z,51.75
2022-08-21T06:21:18.224Z,51.32
2022-08-21T06:22:18.170Z,50.60
2022-08-21T06:23:18.180Z,50.38
2022-08-21T06:24:18.121Z,49.99
2022-08-21T06:25:18.149Z,49.66
2022-08-21T06:26:18.157Z,49.15
2022-08-21T06:27:18.112Z,48.82
2022-08-21T06:28:18.085Z,48.23
2022-08-21T06:29:18.109Z,48.33
2022-08-21T06:30:18.058Z,48.53
2022-08-21T06:31:18.054Z,48.53
2022-08-21T06:32:18.056Z,48.65
2022-08-21T06:33:18.268Z,48.53
2022-08-21T06:34:18.011Z,48.23
2022-08-21T06:35:18.044Z,48.77
2022-08-21T06:36:18.027Z,50.75
2022-08-21T06:37:17.982Z,53.44
2022-08-21T06:38:18.060Z,55.11
2022-08-21T06:39:25.654Z,56.56
2022-08-21T06:40:19.186Z,58.44
2022-08-21T06:41:17.972Z,59.56
2022-08-21T06:42:18.926Z,60.49
2022-08-21T06:43:17.957Z,60.92
2022-08-21T06:44:18.098Z,61.02
2022-08-21T06:45:17.924Z,61.95
2022-08-21T06:46:17.907Z,62.15
2022-08-21T06:47:38.890Z,62.15
2022-08-21T06:48:19.488Z,62.45
2022-08-21T06:49:21.650Z,62.68
2022-08-21T06:50:17.915Z,63.28
2022-08-21T06:51:17.895Z,64.01
2022-08-21T06:52:17.776Z,64.54
2022-08-21T06:53:17.804Z,64.84
2022-08-21T06:54:17.829Z,64.95
2022-08-21T06:55:21.711Z,65.15
2022-08-21T06:56:17.782Z,65.55
2022-08-21T06:57:17.757Z,65.98
2022-08-21T06:58:17.731Z,66.08
2022-08-21T06:59:17.680Z,65.98
2022-08-21T07:00:17.739Z,66.18
2022-08-21T07:01:17.685Z,66.15
2022-08-21T07:02:17.709Z,66.05
2022-08-21T07:03:17.717Z,65.85
2022-08-21T07:04:17.637Z,65.55
2022-08-21T07:05:18.416Z,65.58
2022-08-21T07:06:17.772Z,65.65
2022-08-21T07:07:17.572Z,65.65
2022-08-21T07:08:17.710Z,65.75
2022-08-21T07:09:20.501Z,65.35
2022-08-21T07:10:22.238Z,65.01
2022-08-21T07:11:17.558Z,64.51
2022-08-21T07:12:17.516Z,64.01
2022-08-21T07:13:17.517Z,63.71
2022-08-21T07:14:20.373Z,63.92
2022-08-21T07:15:17.537Z,64.22
2022-08-21T07:16:17.449Z,63.61
2022-08-21T07:17:17.488Z,63.42
2022-08-21T07:18:17.457Z,63.21
2022-08-21T07:19:17.414Z,63.42
2022-08-21T07:20:17.398Z,63.31
2022-08-21T07:21:17.399Z,63.31
2022-08-21T07:22:17.388Z,63.21
2022-08-21T07:23:17.403Z,62.88
2022-08-21T07:24:17.404Z,62.78
2022-08-21T07:25:17.328Z,62.88
2022-08-21T07:26:17.309Z,63.18
2022-08-21T07:27:17.323Z,63.18
2022-08-21T07:28:17.299Z,63.28
2022-08-21T07:29:17.289Z,63.39
2022-08-21T07:30:17.335Z,62.68
2022-08-21T07:31:17.280Z,62.92
2022-08-21T07:32:20.944Z,63.31
2022-08-21T07:33:17.230Z,63.21
2022-08-21T07:34:17.284Z,63.39
2022-08-21T07:35:17.199Z,62.92
2022-08-21T07:36:17.199Z,63.42
2022-08-21T07:37:17.367Z,63.18
2022-08-21T07:38:17.193Z,63.21
2022-08-21T07:39:17.150Z,63.01
2022-08-21T07:40:17.277Z,63.01
2022-08-21T07:41:17.139Z,63.21
2022-08-21T07:42:17.145Z,63.51
2022-08-21T07:43:17.131Z,63.31
2022-08-21T07:44:17.138Z,63.21
2022-08-21T07:45:17.116Z,62.51
2022-08-21T07:46:17.071Z,62.48
2022-08-21T07:47:17.098Z,62.48
2022-08-21T07:48:18.040Z,62.98
2022-08-21T07:49:17.011Z,63.08
2022-08-21T07:50:17.085Z,62.98
2022-08-21T07:51:17.006Z,62.98
2022-08-21T07:52:16.982Z,63.08
2022-08-21T07:53:16.974Z,62.98
2022-08-21T07:54:17.314Z,62.68
2022-08-21T07:55:16.930Z,62.48
2022-08-21T07:56:16.931Z,62.58
2022-08-21T07:57:16.917Z,62.78
2022-08-21T07:58:16.890Z,62.45
2022-08-21T07:59:16.975Z,63.06
2022-08-21T08:00:16.880Z,62.45
2022-08-21T08:01:16.939Z,62.05
2022-08-21T08:02:16.928Z,62.05
2022-08-21T08:03:25.636Z,61.75
2022-08-21T08:04:17.871Z,61.95
2022-08-21T08:05:17.023Z,61.85
2022-08-21T08:06:16.778Z,62.25
2022-08-21T08:07:16.773Z,61.95
2022-08-21T08:08:16.753Z,61.85
2022-08-21T08:09:16.834Z,61.85
2022-08-21T08:10:16.754Z,61.85
2022-08-21T08:11:16.720Z,61.35
2022-08-21T08:12:16.703Z,61.42
2022-08-21T08:13:16.761Z,61.42
2022-08-21T08:14:16.710Z,61.32
2022-08-21T08:15:16.664Z,61.42
2022-08-21T08:16:16.710Z,61.22
2022-08-21T08:17:16.625Z,61.62
2022-08-21T08:18:16.645Z,61.82
2022-08-21T08:19:16.615Z,61.52
2022-08-21T08:20:16.622Z,61.22
2022-08-21T08:21:16.573Z,61.09
2022-08-21T08:22:16.712Z,60.79
2022-08-21T08:23:16.579Z,60.69
2022-08-21T08:24:18.847Z,60.59
2022-08-21T08:25:16.545Z,60.59
2022-08-21T08:26:16.536Z,60.39
2022-08-21T08:27:16.505Z,60.27
2022-08-21T08:28:17.867Z,60.46
2022-08-21T08:29:16.514Z,60.86
2022-08-21T08:30:16.466Z,60.57
2022-08-21T08:31:16.583Z,60.86
2022-08-21T08:32:16.417Z,61.46
2022-08-21T08:33:16.434Z,60.96
2022-08-21T08:34:23.405Z,60.96
2022-08-21T08:35:17.416Z,61.26
2022-08-21T08:36:16.380Z,61.36
2022-08-21T08:37:16.397Z,60.96
2022-08-21T08:38:16.333Z,60.77
2022-08-21T08:39:26.630Z,60.86
2022-08-21T08:40:17.373Z,60.66
2022-08-21T08:41:16.349Z,60.96
2022-08-21T08:42:33.662Z,60.77
2022-08-21T08:43:17.276Z,60.86
2022-08-21T08:44:17.226Z,61.04
2022-08-21T08:45:16.253Z,60.74
2022-08-21T08:46:16.267Z,60.33
2022-08-21T08:47:16.247Z,60.33
2022-08-21T08:48:16.216Z,60.24
2022-08-21T08:49:16.296Z,60.44
2022-08-21T08:50:16.191Z,60.33
2022-08-21T08:51:16.241Z,60.33
2022-08-21T08:52:16.215Z,60.24
2022-08-21T08:53:16.135Z,61.30
2022-08-21T08:54:16.248Z,61.51
2022-08-21T08:55:16.132Z,61.30
2022-08-21T08:56:16.157Z,60.00
2022-08-21T08:57:16.092Z,60.31
2022-08-21T08:58:16.090Z,59.70
2022-08-21T08:59:16.075Z,59.81
2022-08-21T09:00:16.067Z,60.08
2022-08-21T09:01:16.116Z,59.98
2022-08-21T09:02:16.025Z,59.28
2022-08-21T09:03:15.999Z,59.38
2022-08-21T09:04:16.004Z,59.38
2022-08-21T09:05:16.009Z,59.28
2022-08-21T09:06:16.033Z,59.48
2022-08-21T09:07:15.992Z,60.48
2022-08-21T09:08:18.869Z,60.08
2022-08-21T09:09:15.940Z,59.65
2022-08-21T09:10:15.982Z,58.85
2022-08-21T09:11:15.981Z,58.45
2022-08-21T09:12:15.892Z,58.36
2022-08-21T09:13:15.874Z,58.25
2022-08-21T09:14:15.913Z,58.25
2022-08-21T09:15:15.878Z,58.75
2022-08-21T09:16:15.842Z,58.83
2022-08-21T09:17:15.828Z,58.12
2022-08-21T09:18:15.844Z,58.12
2022-08-21T09:19:15.789Z,58.62
2022-08-21T09:20:15.789Z,58.10
2022-08-21T09:21:15.781Z,57.40
2022-08-21T09:22:15.797Z,56.81
2022-08-21T09:23:15.729Z,56.60
2022-08-21T09:24:15.724Z,56.60
2022-08-21T09:25:15.714Z,56.40
2022-08-21T09:26:15.707Z,56.40
2022-08-21T09:27:15.762Z,56.40
2022-08-21T09:28:15.744Z,56.73
2022-08-21T09:29:15.717Z,56.90
2022-08-21T09:30:15.641Z,56.90
2022-08-21T09:31:19.457Z,57.10
2022-08-21T09:32:37.474Z,56.81
2022-08-21T09:33:16.641Z,56.68
2022-08-21T09:34:15.602Z,55.48
2022-08-21T09:35:15.739Z,55.88
2022-08-21T09:36:15.562Z,55.98
2022-08-21T09:37:15.547Z,55.16
2022-08-21T09:38:15.670Z,54.96
2022-08-21T09:39:15.533Z,54.13
2022-08-21T09:41:25.367Z,54.03
2022-08-21T09:42:25.425Z,53.86
2022-08-21T09:43:25.329Z,54.86
2022-08-21T09:44:43.418Z,54.26
2022-08-21T09:45:26.380Z,53.74
2022-08-21T09:46:25.288Z,53.74
2022-08-21T09:47:26.923Z,53.64
2022-08-21T09:48:26.293Z,53.53
2022-08-21T09:49:25.324Z,53.51
2022-08-21T09:50:25.229Z,52.91
2022-08-21T09:51:25.305Z,52.54
2022-08-21T09:52:25.325Z,53.94
2022-08-21T09:53:25.339Z,51.84
2022-08-21T09:54:25.240Z,52.24
2022-08-21T09:55:25.174Z,52.54
2022-08-21T09:56:25.340Z,52.04
2022-08-21T09:57:25.180Z,52.34
2022-08-21T09:58:25.205Z,51.95
2022-08-21T09:59:25.207Z,51.45
2022-08-21T10:00:25.173Z,51.25
2022-08-21T10:01:25.289Z,50.25
2022-08-21T10:02:25.055Z,50.15
2022-08-21T10:03:25.043Z,50.43
2022-08-21T10:04:25.044Z,49.04
2022-08-21T10:05:25.142Z,49.13
2022-08-21T10:06:25.161Z,49.04
2022-08-21T10:07:25.007Z,49.73
2022-08-21T10:08:24.996Z,48.54
2022-08-21T10:09:25.131Z,49.04
2022-08-21T10:10:25.063Z,48.71
2022-08-21T10:11:24.997Z,48.81
2022-08-21T10:12:24.967Z,48.91
2022-08-21T10:13:24.933Z,48.91
2022-08-21T10:14:24.975Z,49.21
2022-08-21T10:15:24.921Z,49.11
2022-08-21T10:16:24.981Z,49.21
2022-08-21T10:17:24.881Z,49.11
2022-08-21T10:18:24.872Z,49.11
2022-08-21T10:19:25.001Z,49.31
2022-08-21T10:20:24.859Z,49.31
2022-08-21T10:21:24.949Z,49.31
2022-08-21T10:22:24.789Z,49.61
2022-08-21T10:23:24.836Z,49.41
2022-08-21T10:24:31.379Z,49.31
2022-08-21T10:25:25.761Z,49.01
2022-08-21T10:26:24.743Z,49.01
2022-08-21T10:27:24.781Z,49.11
2022-08-21T10:28:24.721Z,49.01
2022-08-21T10:29:24.682Z,49.21
2022-08-21T10:30:24.724Z,50.31
2022-08-21T10:31:24.677Z,49.11
2022-08-21T10:32:26.281Z,49.01
2022-08-21T10:33:24.655Z,48.91
2022-08-21T10:34:24.619Z,49.21
2022-08-21T10:35:24.609Z,49.11
2022-08-21T10:36:24.715Z,49.01
2022-08-21T10:37:24.579Z,48.79
2022-08-21T10:38:48.820Z,48.69
2022-08-21T10:39:35.595Z,48.79
2022-08-21T10:40:25.706Z,48.69
2022-08-21T10:41:24.630Z,48.39
2022-08-21T10:42:28.116Z,48.27
2022-08-21T10:43:24.515Z,48.77
2022-08-21T10:44:24.507Z,49.07
2022-08-21T10:45:24.485Z,49.36
2022-08-21T10:46:24.462Z,48.27
2022-08-21T10:47:24.484Z,48.37
2022-08-21T10:48:24.478Z,48.47
2022-08-21T10:49:24.425Z,48.47
2022-08-21T10:50:24.446Z,48.27
2022-08-21T10:51:29.022Z,47.87
2022-08-21T10:52:24.517Z,47.57
2022-08-21T10:53:24.384Z,47.85
2022-08-21T10:54:24.405Z,47.85
2022-08-21T10:55:24.352Z,47.55
2022-08-21T10:56:24.342Z,48.94
2022-08-21T10:57:32.431Z,48.42
2022-08-21T10:58:25.366Z,48.52
2022-08-21T10:59:24.294Z,48.13
2022-08-21T11:00:24.313Z,47.63
2022-08-21T11:01:24.281Z,47.23
2022-08-21T11:02:24.284Z,47.33
2022-08-21T11:03:24.280Z,46.93
2022-08-21T11:04:24.320Z,46.93
2022-08-21T11:05:25.433Z,46.24
2022-08-21T11:06:24.223Z,46.76
2022-08-21T11:07:24.755Z,47.05
2022-08-21T11:08:24.182Z,46.64
2022-08-21T11:09:24.218Z,46.93
2022-08-21T11:10:24.549Z,46.44
2022-08-21T11:11:24.292Z,46.34
2022-08-21T11:12:24.126Z,46.46
2022-08-21T11:13:30.613Z,46.16
2022-08-21T11:14:25.178Z,46.76
2022-08-21T11:15:28.689Z,47.53
2022-08-21T11:16:25.449Z,46.73
2022-08-21T11:17:24.098Z,45.74
2022-08-21T11:18:24.206Z,45.54
2022-08-21T11:19:24.083Z,46.14
2022-08-21T11:20:24.092Z,46.12
2022-08-21T11:21:24.004Z,45.32
2022-08-21T11:22:24.048Z,45.32
2022-08-21T11:23:24.005Z,45.12
2022-08-21T11:24:23.942Z,45.42
2022-08-21T11:25:23.920Z,44.83
2022-08-21T11:26:23.988Z,44.23
2022-08-21T11:27:23.948Z,44.23
2022-08-21T11:28:23.947Z,44.53
2022-08-21T11:29:23.910Z,45.62
2022-08-21T11:30:23.895Z,45.42
2022-08-21T11:31:23.894Z,45.40
2022-08-21T11:32:23.925Z,44.90
2022-08-21T11:33:23.824Z,45.20
2022-08-21T11:34:23.937Z,44.21
2022-08-21T11:35:23.838Z,44.19
2022-08-21T11:36:23.771Z,44.19
2022-08-21T11:37:23.821Z,44.39
2022-08-21T11:38:23.812Z,44.19
2022-08-21T11:39:23.786Z,43.40
2022-08-21T11:40:23.811Z,43.00
2022-08-21T11:41:23.732Z,43.62
2022-08-21T11:42:23.709Z,43.60
2022-08-21T11:43:23.746Z,43.40
2022-08-21T11:44:23.692Z,43.40
2022-08-21T11:45:23.695Z,43.32
2022-08-21T11:46:23.654Z,43.02
2022-08-21T11:47:23.637Z,43.12
2022-08-21T11:48:23.621Z,42.43
2022-08-21T11:49:23.692Z,42.03
2022-08-21T11:50:35.184Z,42.15
2022-08-21T11:51:24.586Z,43.14
2022-08-21T11:52:23.600Z,43.14
2022-08-21T11:53:23.601Z,42.43
2022-08-21T11:54:23.572Z,42.82
2022-08-21T11:55:23.798Z,42.52
2022-08-21T11:56:23.557Z,41.22
2022-08-21T11:57:23.575Z,41.02
2022-08-21T11:58:23.548Z,41.81
2022-08-21T11:59:23.464Z,42.11
2022-08-21T12:00:23.501Z,42.31
2022-08-21T12:01:23.516Z,42.09
2022-08-21T12:02:23.572Z,42.49
2022-08-21T12:03:23.460Z,41.47
2022-08-21T12:04:23.484Z,41.30
2022-08-21T12:05:23.471Z,41.97
2022-08-21T12:06:24.564Z,42.19
2022-08-21T12:07:23.372Z,42.19
2022-08-21T12:08:23.371Z,41.22
2022-08-21T12:09:23.737Z,41.41
2022-08-21T12:10:23.386Z,41.81
2022-08-21T12:11:23.526Z,42.31
2022-08-21T12:12:24.321Z,42.01
2022-08-21T12:13:40.086Z,42.01
2022-08-21T12:14:24.316Z,43.10
2022-08-21T12:15:23.315Z,42.71
2022-08-21T12:16:23.239Z,42.19
2022-08-21T12:17:23.228Z,42.09
2022-08-21T12:18:23.316Z,41.20
2022-08-21T12:19:23.272Z,41.00
2022-08-21T12:20:23.258Z,40.31
2022-08-21T12:21:23.294Z,39.91
2022-08-21T12:22:23.157Z,40.31
2022-08-21T12:23:23.158Z,40.31
2022-08-21T12:24:23.174Z,40.50
2022-08-21T12:25:23.157Z,40.60
2022-08-21T12:26:23.128Z,40.41
2022-08-21T12:27:23.138Z,40.39
2022-08-21T12:28:23.131Z,40.68
2022-08-21T12:29:23.199Z,40.26
2022-08-21T12:30:25.751Z,40.26
2022-08-21T12:31:23.331Z,40.15
2022-08-21T12:32:23.381Z,42.03
2022-08-21T12:33:23.067Z,41.14
2022-08-21T12:34:23.070Z,40.66
2022-08-21T12:35:24.959Z,41.38
2022-08-21T12:36:23.039Z,40.80
2022-08-21T12:37:22.960Z,40.90
2022-08-21T12:38:23.139Z,40.70
2022-08-21T12:39:22.989Z,41.31
2022-08-21T12:40:23.055Z,41.20
2022-08-21T12:41:22.920Z,41.49
2022-08-21T12:42:22.919Z,41.20
2022-08-21T12:43:22.903Z,41.00
2022-08-21T12:44:22.956Z,41.99
2022-08-21T12:45:22.942Z,41.89
2022-08-21T12:46:22.898Z,40.80
2022-08-21T12:47:22.844Z,41.30
2022-08-21T12:48:24.923Z,41.69
2022-08-21T12:49:26.757Z,40.80
2022-08-21T12:50:22.827Z,40.41
2022-08-21T12:51:22.862Z,40.60
2022-08-21T12:52:22.790Z,40.60
2022-08-21T12:53:22.833Z,40.80